This is the latest recevied weather packets stored in our database for station/object OE-11372. If no packets are shown the sender has not sent any weather packets the latest 10 day(s).
| Time | Temp. | Humidity | Pressure | Rain* | Wind** | Luminosity | Snow |
|---|---|---|---|---|---|---|---|
| 1787673303 | 15.56° C | 89% | 850.5 hPa | 1.27 mm | - | 49 W/m² | - |
| 1787672476 | 15.56° C | 88% | 850.5 hPa | 0.76 mm | - | 49 W/m² | - |
| 1787672103 | 16.67° C | 84% | 850.5 hPa | 0.25 mm | - | 49 W/m² | - |
| 1787671503 | 17.78° C | 74% | 850.1 hPa | 0 mm | - | 41 W/m² | - |
| 1787670676 | 18.33° C | 69% | 850.2 hPa | 0 mm | - | 74 W/m² | - |
| 1787670302 | 18.33° C | 70% | 850 hPa | 0 mm | - | 91 W/m² | - |
| 1787669703 | 18.89° C | 70% | 849.8 hPa | 0 mm | - | 115 W/m² | - |
| 1787668876 | 18.89° C | 69% | 849.7 hPa | 0 mm | - | 173 W/m² | - |
| 1787668503 | 19.44° C | 69% | 849.7 hPa | 0 mm | - | 222 W/m² | - |
| 1787667902 | 19.44° C | 70% | 849.6 hPa | 0 mm | - | 338 W/m² | - |
| 1787667076 | 18.89° C | 70% | 849.7 hPa | 0 mm | - | 329 W/m² | - |
| 1787666703 | 18.33° C | 71% | 849.4 hPa | 0 mm | - | 181 W/m² | - |
| 1787666103 | 18.33° C | 72% | 849.4 hPa | 0 mm | - | 140 W/m² | - |
| 1787665276 | 18.89° C | 73% | 849.4 hPa | 0 mm | - | 91 W/m² | - |
| 1787664903 | 18.89° C | 69% | 849.2 hPa | 0 mm | - | 91 W/m² | - |
| 1787664303 | 18.89° C | 68% | 849.2 hPa | 0 mm | - | 157 W/m² | - |
| 1787663476 | 18.89° C | 66% | 849.1 hPa | 0 mm | - | 338 W/m² | - |
| 1787663103 | 19.44° C | 67% | 849.2 hPa | 0 mm | - | 725 W/m² | - |
| 1787662503 | 18.89° C | 68% | 849.1 hPa | 0 mm | - | 239 W/m² | - |
| 1787661676 | 18.89° C | 68% | 849.1 hPa | 0 mm | - | 288 W/m² | - |
| 1787661303 | 18.33° C | 73% | 849.1 hPa | 0 mm | - | 239 W/m² | - |
| 1787660703 | 18.33° C | 70% | 849.1 hPa | 0 mm | - | 148 W/m² | - |
| 1787660114 | 18.33° C | 71% | 849 hPa | 0 mm | - | 124 W/m² | - |
| 1787659502 | 18.33° C | 69% | 848.9 hPa | 0 mm | - | 157 W/m² | - |
| 1787658903 | 18.33° C | 68% | 848.9 hPa | 0 mm | - | 247 W/m² | - |
* Rain latest hour (hover to see other rain measurements)
** Current wind speed in m/s (hover to see current wind gust speed)